createdAt,value
2018-05-03T00:00:52.020Z,0.00
2018-05-03T00:01:52.116Z,0.00
2018-05-03T00:02:52.210Z,0.00
2018-05-03T00:03:52.304Z,0.00
2018-05-03T00:04:52.399Z,0.00
2018-05-03T00:05:52.482Z,0.00
2018-05-03T00:06:52.593Z,0.00
2018-05-03T00:07:52.688Z,0.00
2018-05-03T00:08:52.781Z,0.00
2018-05-03T00:09:52.878Z,0.00
2018-05-03T00:10:52.972Z,0.00
2018-05-03T00:11:53.070Z,0.00
2018-05-03T00:12:53.164Z,0.00
2018-05-03T00:13:53.262Z,0.00
2018-05-03T00:14:53.360Z,0.00
2018-05-03T00:15:53.450Z,0.00
2018-05-03T00:16:53.545Z,0.00
2018-05-03T00:17:53.641Z,0.00
2018-05-03T00:18:53.753Z,0.00
2018-05-03T00:19:53.854Z,0.00
2018-05-03T00:20:53.947Z,0.00
2018-05-03T00:21:54.039Z,0.00
2018-05-03T00:22:54.136Z,0.00
2018-05-03T00:23:54.231Z,0.00
2018-05-03T00:24:54.328Z,0.00
2018-05-03T00:25:54.425Z,0.00
2018-05-03T00:26:54.518Z,0.00
2018-05-03T00:27:54.616Z,0.00
2018-05-03T00:28:54.710Z,0.00
2018-05-03T00:29:54.805Z,0.00
2018-05-03T00:30:54.904Z,0.00
2018-05-03T00:31:54.998Z,0.00
2018-05-03T00:32:55.090Z,0.00
2018-05-03T00:33:55.184Z,0.00
2018-05-03T00:34:55.277Z,0.00
2018-05-03T00:35:55.373Z,0.00
2018-05-03T00:36:55.470Z,0.00
2018-05-03T00:37:55.562Z,0.00
2018-05-03T00:38:55.656Z,0.00
2018-05-03T00:39:55.753Z,0.00
2018-05-03T00:40:55.850Z,0.00
2018-05-03T00:41:55.942Z,0.00
2018-05-03T00:42:56.039Z,0.00
2018-05-03T00:43:56.133Z,0.00
2018-05-03T00:44:56.229Z,0.00
2018-05-03T00:45:56.322Z,0.00
2018-05-03T00:46:56.410Z,0.00
2018-05-03T00:47:56.503Z,0.00
2018-05-03T00:48:56.601Z,0.00
2018-05-03T00:49:56.697Z,0.00
2018-05-03T00:50:56.792Z,0.00
2018-05-03T00:51:56.911Z,0.00
2018-05-03T00:52:57.005Z,0.00
2018-05-03T00:53:57.106Z,0.00
2018-05-03T00:54:57.199Z,0.00
2018-05-03T00:55:57.297Z,0.00
2018-05-03T00:56:57.387Z,0.00
2018-05-03T00:57:57.481Z,0.00
2018-05-03T00:58:57.576Z,0.00
2018-05-03T00:59:57.672Z,0.00
2018-05-03T01:00:57.766Z,0.00
2018-05-03T01:01:57.863Z,0.00
2018-05-03T01:02:57.966Z,0.00
2018-05-03T01:03:58.076Z,0.00
2018-05-03T01:04:58.202Z,0.00
2018-05-03T01:05:58.312Z,0.00
2018-05-03T01:06:58.407Z,0.00
2018-05-03T01:07:58.501Z,0.00
2018-05-03T01:08:58.598Z,0.00
2018-05-03T01:09:58.691Z,0.00
2018-05-03T01:10:58.786Z,0.00
2018-05-03T01:11:58.880Z,0.00
2018-05-03T01:12:58.980Z,0.00
2018-05-03T01:13:59.071Z,0.00
2018-05-03T01:14:59.164Z,0.00
2018-05-03T01:15:59.356Z,0.00
2018-05-03T01:16:59.288Z,0.00
2018-05-03T01:17:59.380Z,0.00
2018-05-03T01:18:59.470Z,0.00
2018-05-03T01:19:59.575Z,0.00
2018-05-03T01:20:59.671Z,0.00
2018-05-03T01:21:59.772Z,0.00
2018-05-03T01:22:59.911Z,0.00
2018-05-03T01:24:00.005Z,0.00
2018-05-03T01:25:00.093Z,0.00
2018-05-03T01:26:00.183Z,0.00
2018-05-03T01:27:00.272Z,0.00
2018-05-03T01:28:00.377Z,0.00
2018-05-03T01:29:00.512Z,0.00
2018-05-03T01:30:00.606Z,0.00
2018-05-03T01:31:00.702Z,0.00
2018-05-03T01:32:00.788Z,0.00
2018-05-03T01:33:00.883Z,0.00
2018-05-03T01:34:01.011Z,0.00
2018-05-03T01:35:01.095Z,0.00
2018-05-03T01:36:01.201Z,4.00
2018-05-03T01:37:01.285Z,0.00
2018-05-03T01:38:01.376Z,0.00
2018-05-03T01:39:01.478Z,0.00
2018-05-03T01:40:01.540Z,0.00
2018-05-03T01:41:01.675Z,0.00
2018-05-03T01:42:01.778Z,4.00
2018-05-03T01:43:01.858Z,0.00
2018-05-03T01:44:01.956Z,0.00
2018-05-03T01:45:02.041Z,0.00
2018-05-03T01:46:02.175Z,0.00
2018-05-03T01:47:02.286Z,0.00
2018-05-03T01:48:02.375Z,0.00
2018-05-03T01:49:02.472Z,0.00
2018-05-03T01:50:02.616Z,0.00
2018-05-03T01:51:02.747Z,0.00
2018-05-03T01:52:02.847Z,0.00
2018-05-03T01:53:02.944Z,0.00
2018-05-03T01:54:03.031Z,0.00
2018-05-03T01:55:03.132Z,0.00
2018-05-03T01:56:03.247Z,0.00
2018-05-03T01:57:03.337Z,0.00
2018-05-03T01:58:03.420Z,0.00
2018-05-03T01:59:03.548Z,0.00
2018-05-03T02:00:03.630Z,0.00
2018-05-03T02:01:03.712Z,0.00
2018-05-03T02:02:03.822Z,0.00
2018-05-03T02:03:03.901Z,0.00
2018-05-03T02:04:03.993Z,0.00
2018-05-03T02:05:04.087Z,0.00
2018-05-03T02:06:04.192Z,0.00
2018-05-03T02:07:04.309Z,0.00
2018-05-03T02:08:04.422Z,0.00
2018-05-03T02:09:04.499Z,0.00
2018-05-03T02:10:04.594Z,0.00
2018-05-03T02:11:04.685Z,0.00
2018-05-03T02:12:04.799Z,0.00
2018-05-03T02:13:04.895Z,0.00
2018-05-03T02:14:05.032Z,0.00
2018-05-03T02:15:05.134Z,0.00
2018-05-03T02:16:05.239Z,0.00
2018-05-03T02:17:05.323Z,0.00
2018-05-03T02:18:05.418Z,0.00
2018-05-03T02:19:05.520Z,0.00
2018-05-03T02:20:05.639Z,0.00
2018-05-03T02:21:05.724Z,0.00
2018-05-03T02:22:05.805Z,0.00
2018-05-03T02:23:05.897Z,0.00
2018-05-03T02:24:05.994Z,0.00
2018-05-03T02:25:06.083Z,0.00
2018-05-03T02:26:06.171Z,0.00
2018-05-03T02:27:06.266Z,0.00
2018-05-03T02:28:06.354Z,0.00
2018-05-03T02:29:06.531Z,0.00
2018-05-03T02:30:06.488Z,0.00
2018-05-03T02:31:06.600Z,0.00
2018-05-03T02:32:06.704Z,0.00
2018-05-03T02:33:06.795Z,0.00
2018-05-03T02:34:06.879Z,0.00
2018-05-03T02:35:06.977Z,0.00
2018-05-03T02:36:07.085Z,0.00
2018-05-03T02:37:07.167Z,0.00
2018-05-03T02:38:07.257Z,0.00
2018-05-03T02:39:07.351Z,0.00
2018-05-03T02:40:07.459Z,0.00
2018-05-03T02:41:07.559Z,0.00
2018-05-03T02:42:07.657Z,0.00
2018-05-03T02:43:07.754Z,0.00
2018-05-03T02:44:07.851Z,0.00
2018-05-03T02:45:07.947Z,0.00
2018-05-03T02:46:08.053Z,0.00
2018-05-03T02:47:08.159Z,0.00
2018-05-03T02:48:08.250Z,0.00
2018-05-03T02:49:08.382Z,0.00
2018-05-03T02:50:08.476Z,0.00
2018-05-03T02:51:08.572Z,0.00
2018-05-03T02:52:08.664Z,0.00
2018-05-03T02:53:08.758Z,0.00
2018-05-03T02:54:08.878Z,0.00
2018-05-03T02:55:08.979Z,0.00
2018-05-03T02:56:09.087Z,0.00
2018-05-03T02:57:09.182Z,0.00
2018-05-03T02:58:09.277Z,0.00
2018-05-03T02:59:09.362Z,0.00
2018-05-03T03:00:09.457Z,0.00
2018-05-03T03:01:09.555Z,0.00
2018-05-03T03:02:09.650Z,0.00
2018-05-03T03:03:09.742Z,0.00
2018-05-03T03:04:09.865Z,4.00
2018-05-03T03:05:09.965Z,0.00
2018-05-03T03:06:10.071Z,0.00
2018-05-03T03:07:10.181Z,0.00
2018-05-03T03:08:10.274Z,0.00
2018-05-03T03:09:10.375Z,0.00
2018-05-03T03:10:10.478Z,0.00
2018-05-03T03:11:10.573Z,0.00
2018-05-03T03:12:10.675Z,0.00
2018-05-03T03:13:10.771Z,0.00
2018-05-03T03:14:10.854Z,0.00
2018-05-03T03:15:10.944Z,0.00
2018-05-03T03:16:11.037Z,0.00
2018-05-03T03:17:11.130Z,0.00
2018-05-03T03:18:11.228Z,0.00
2018-05-03T03:19:11.311Z,4.00
2018-05-03T03:20:11.437Z,4.00
2018-05-03T03:21:11.508Z,4.00
2018-05-03T03:22:11.605Z,4.00
2018-05-03T03:23:11.708Z,4.00
2018-05-03T03:24:11.794Z,4.00
2018-05-03T03:25:11.886Z,4.00
2018-05-03T03:26:11.983Z,4.00
2018-05-03T03:27:12.077Z,4.00
2018-05-03T03:28:12.159Z,4.00
2018-05-03T03:29:12.273Z,8.00
2018-05-03T03:30:12.368Z,8.00
2018-05-03T03:31:12.465Z,12.00
2018-05-03T03:32:12.560Z,12.00
2018-05-03T03:33:12.655Z,12.00
2018-05-03T03:34:12.750Z,12.00
2018-05-03T03:35:12.841Z,16.00
2018-05-03T03:36:12.940Z,16.00
2018-05-03T03:37:13.032Z,20.00
2018-05-03T03:38:13.129Z,20.00
2018-05-03T03:39:13.221Z,24.00
2018-05-03T03:40:13.320Z,24.00
2018-05-03T03:41:13.411Z,28.00
2018-05-03T03:42:13.509Z,32.00
2018-05-03T03:43:13.598Z,36.00
2018-05-03T03:44:13.688Z,36.00
2018-05-03T03:45:13.784Z,36.00
2018-05-03T03:46:13.879Z,40.00
2018-05-03T03:47:13.974Z,44.00
2018-05-03T03:48:14.072Z,52.00
2018-05-03T03:49:14.164Z,56.00
2018-05-03T03:50:14.259Z,60.00
2018-05-03T03:51:14.353Z,64.00
2018-05-03T03:52:14.447Z,72.00
2018-05-03T03:53:14.599Z,72.00
2018-05-03T03:54:14.662Z,76.00
2018-05-03T03:55:14.756Z,72.00
2018-05-03T03:56:14.853Z,76.00
2018-05-03T03:57:14.949Z,72.00
2018-05-03T03:58:15.042Z,76.00
2018-05-03T03:59:15.139Z,80.00
2018-05-03T04:00:15.225Z,84.00
2018-05-03T04:01:15.308Z,84.00
2018-05-03T04:02:15.406Z,84.00
2018-05-03T04:03:15.513Z,88.00
2018-05-03T04:04:15.611Z,92.00
2018-05-03T04:05:15.702Z,92.00
2018-05-03T04:06:15.798Z,96.00
2018-05-03T04:07:15.892Z,100.00
2018-05-03T04:08:15.985Z,100.00
2018-05-03T04:09:16.085Z,104.00
2018-05-03T04:10:16.181Z,108.00
2018-05-03T04:11:16.275Z,116.00
2018-05-03T04:12:16.373Z,124.00
2018-05-03T04:13:16.469Z,132.00
2018-05-03T04:14:16.561Z,144.00
2018-05-03T04:15:16.657Z,152.00
2018-05-03T04:16:16.753Z,168.00
2018-05-03T04:17:16.848Z,180.00
2018-05-03T04:18:16.946Z,196.00
2018-05-03T04:19:17.044Z,212.00
2018-05-03T04:20:17.138Z,228.00
2018-05-03T04:21:17.238Z,244.00
2018-05-03T04:22:17.386Z,256.00
2018-05-03T04:23:17.428Z,268.00
2018-05-03T04:24:17.523Z,280.00
2018-05-03T04:25:17.617Z,292.00
2018-05-03T04:26:17.715Z,308.00
2018-05-03T04:27:17.810Z,320.00
2018-05-03T04:28:17.906Z,340.00
2018-05-03T04:29:18.001Z,360.00
2018-05-03T04:30:18.096Z,388.00
2018-05-03T04:31:18.191Z,400.00
2018-05-03T04:32:18.285Z,424.00
2018-05-03T04:33:18.383Z,448.00
2018-05-03T04:34:18.477Z,468.00
2018-05-03T04:35:18.572Z,484.00
2018-05-03T04:36:18.666Z,476.00
2018-05-03T04:37:18.763Z,464.00
2018-05-03T04:38:18.864Z,452.00
2018-05-03T04:39:18.954Z,444.00
2018-05-03T04:40:19.050Z,456.00
2018-05-03T04:41:19.149Z,464.00
2018-05-03T04:42:19.240Z,452.00
2018-05-03T04:43:19.337Z,472.00
2018-05-03T04:44:19.436Z,500.00
2018-05-03T04:45:19.527Z,524.00
2018-05-03T04:46:19.622Z,556.00
2018-05-03T04:47:19.739Z,584.00
2018-05-03T04:48:19.833Z,604.00
2018-05-03T04:49:19.932Z,628.00
2018-05-03T04:50:20.024Z,648.00
2018-05-03T04:51:20.122Z,668.00
2018-05-03T04:52:20.216Z,672.00
2018-05-03T04:53:20.311Z,680.00
2018-05-03T04:54:20.410Z,680.00
2018-05-03T04:55:20.505Z,696.00
2018-05-03T04:56:20.602Z,712.00
2018-05-03T04:57:20.698Z,736.00
2018-05-03T04:58:20.795Z,764.00
2018-05-03T04:59:20.891Z,804.00
2018-05-03T05:00:20.987Z,856.00
2018-05-03T05:01:21.078Z,908.00
2018-05-03T05:02:21.235Z,968.00
2018-05-03T05:03:21.267Z,1032.00
2018-05-03T05:04:21.363Z,1104.00
2018-05-03T05:05:21.459Z,1188.00
2018-05-03T05:06:21.559Z,1292.00
2018-05-03T05:07:21.668Z,1404.00
2018-05-03T05:08:21.765Z,1516.00
2018-05-03T05:09:21.859Z,1632.00
2018-05-03T05:10:21.959Z,1724.00
2018-05-03T05:11:22.054Z,1760.00
2018-05-03T05:12:22.216Z,1784.00
2018-05-03T05:13:22.247Z,1812.00
2018-05-03T05:14:22.350Z,1832.00
2018-05-03T05:15:22.440Z,1884.00
2018-05-03T05:16:22.539Z,1976.00
2018-05-03T05:17:22.633Z,2084.00
2018-05-03T05:18:22.731Z,2196.00
2018-05-03T05:19:22.828Z,2216.00
2018-05-03T05:20:22.920Z,2236.00
2018-05-03T05:21:23.012Z,2244.00
2018-05-03T05:22:23.106Z,2216.00
2018-05-03T05:23:23.204Z,2164.00
2018-05-03T05:24:23.304Z,2108.00
2018-05-03T05:25:23.397Z,2072.00
2018-05-03T05:26:23.493Z,2056.00
2018-05-03T05:27:23.596Z,2044.00
2018-05-03T05:28:23.691Z,2036.00
2018-05-03T05:29:23.789Z,2032.00
2018-05-03T05:30:23.885Z,2036.00
2018-05-03T05:31:23.980Z,2028.00
2018-05-03T05:32:24.076Z,1988.00
2018-05-03T05:33:24.174Z,1944.00
2018-05-03T05:34:24.272Z,1924.00
2018-05-03T05:35:24.367Z,1880.00
2018-05-03T05:36:24.464Z,1840.00
2018-05-03T05:37:24.559Z,1820.00
2018-05-03T05:38:24.727Z,1796.00
2018-05-03T05:39:24.757Z,1796.00
2018-05-03T05:40:24.850Z,1812.00
2018-05-03T05:41:24.943Z,1852.00
2018-05-03T05:42:25.029Z,1884.00
2018-05-03T05:43:25.107Z,1900.00
2018-05-03T05:44:25.219Z,1912.00
2018-05-03T05:45:25.306Z,1936.00
2018-05-03T05:46:25.403Z,1956.00
2018-05-03T05:47:25.529Z,1960.00
2018-05-03T05:48:25.620Z,1980.00
2018-05-03T05:49:25.739Z,2008.00
2018-05-03T05:50:25.848Z,2056.00
2018-05-03T05:51:25.943Z,2120.00
2018-05-03T05:52:26.042Z,2204.00
2018-05-03T05:53:26.139Z,2284.00
2018-05-03T05:54:26.237Z,2376.00
2018-05-03T05:55:26.332Z,2468.00
2018-05-03T05:56:26.429Z,2540.00
2018-05-03T05:57:26.529Z,2600.00
2018-05-03T05:58:26.625Z,2680.00
2018-05-03T05:59:26.719Z,2760.00
2018-05-03T06:00:26.815Z,2820.00
2018-05-03T06:01:26.910Z,2860.00
2018-05-03T06:02:27.014Z,2896.00
2018-05-03T06:03:27.110Z,2904.00
2018-05-03T06:04:27.202Z,2888.00
2018-05-03T06:05:27.303Z,2932.00
2018-05-03T06:06:27.398Z,2996.00
2018-05-03T06:07:27.495Z,3096.00
2018-05-03T06:08:27.585Z,3232.00
2018-05-03T06:09:27.696Z,3384.00
2018-05-03T06:10:27.946Z,3476.00
2018-05-03T06:11:27.887Z,3608.00
2018-05-03T06:12:27.986Z,3716.00
2018-05-03T06:13:28.090Z,3928.00
2018-05-03T06:14:28.185Z,4120.00
2018-05-03T06:15:28.282Z,4392.00
2018-05-03T06:16:28.377Z,4624.00
2018-05-03T06:17:28.474Z,4896.00
2018-05-03T06:18:28.572Z,5052.00
2018-05-03T06:19:28.670Z,5120.00
2018-05-03T06:20:28.768Z,5280.00
2018-05-03T06:21:28.876Z,5368.00
2018-05-03T06:22:28.975Z,5824.00
2018-05-03T06:23:29.077Z,6228.00
2018-05-03T06:24:29.174Z,6164.00
2018-05-03T06:25:29.272Z,5864.00
2018-05-03T06:26:29.356Z,5564.00
2018-05-03T06:27:29.450Z,5376.00
2018-05-03T06:28:29.549Z,5000.00
2018-05-03T06:29:29.649Z,4764.00
2018-05-03T06:30:29.756Z,4892.00
2018-05-03T06:31:29.981Z,4800.00
2018-05-03T06:32:29.971Z,4584.00
2018-05-03T06:33:30.078Z,4532.00
2018-05-03T06:34:30.166Z,4444.00
2018-05-03T06:35:30.292Z,4272.00
2018-05-03T06:36:30.426Z,4440.00
2018-05-03T06:37:30.519Z,4664.00
2018-05-03T06:38:30.650Z,5972.00
2018-05-03T06:39:30.728Z,8984.00
2018-05-03T06:40:30.837Z,6360.00
2018-05-03T06:41:30.998Z,6528.00
2018-05-03T06:42:31.089Z,6664.00
2018-05-03T06:43:31.302Z,6280.00
2018-05-03T06:44:31.284Z,7360.00
2018-05-03T06:45:31.388Z,6468.00
2018-05-03T06:46:31.469Z,6900.00
2018-05-03T06:47:31.655Z,6828.00
2018-05-03T06:48:31.755Z,6716.00
2018-05-03T06:49:31.873Z,6668.00
2018-05-03T06:50:32.202Z,6608.00
2018-05-03T06:51:32.138Z,6384.00
2018-05-03T06:52:32.271Z,6316.00
2018-05-03T06:53:32.266Z,6280.00
2018-05-03T06:54:32.361Z,6196.00
2018-05-03T06:55:32.567Z,6148.00
2018-05-03T06:56:32.673Z,6108.00
2018-05-03T06:57:32.810Z,6072.00
2018-05-03T06:58:32.938Z,6004.00
2018-05-03T06:59:33.037Z,6092.00
2018-05-03T07:00:33.223Z,6028.00
2018-05-03T07:01:33.286Z,6200.00
2018-05-03T07:02:33.275Z,6140.00
2018-05-03T07:03:33.516Z,5652.00
2018-05-03T07:04:33.524Z,6368.00
2018-05-03T07:05:33.649Z,6344.00
2018-05-03T07:06:33.682Z,6552.00
2018-05-03T07:07:33.784Z,6004.00
2018-05-03T07:08:34.055Z,6652.00
2018-05-03T07:09:34.031Z,6564.00
2018-05-03T07:10:34.134Z,5572.00
2018-05-03T07:11:34.231Z,5288.00
2018-05-03T07:12:34.324Z,5444.00
2018-05-03T07:13:34.457Z,5544.00
2018-05-03T07:14:34.584Z,5868.00
2018-05-03T07:15:34.688Z,6732.00
2018-05-03T07:16:34.783Z,6984.00
2018-05-03T07:17:34.871Z,6428.00
2018-05-03T07:18:34.969Z,6624.00
2018-05-03T07:19:35.072Z,6024.00
2018-05-03T07:20:35.167Z,6152.00
2018-05-03T07:21:35.263Z,6508.00
2018-05-03T07:22:35.364Z,6444.00
2018-05-03T07:23:35.464Z,6864.00
2018-05-03T07:24:35.561Z,6544.00
2018-05-03T07:25:35.651Z,6556.00
2018-05-03T07:26:35.761Z,5744.00
2018-05-03T07:27:35.853Z,5544.00
2018-05-03T07:28:35.970Z,5596.00
2018-05-03T07:29:36.080Z,5884.00
2018-05-03T07:30:36.171Z,6196.00
2018-05-03T07:31:36.266Z,7292.00
2018-05-03T07:32:36.355Z,6788.00
2018-05-03T07:33:36.446Z,6220.00
2018-05-03T07:34:36.575Z,5500.00
2018-05-03T07:35:36.696Z,5296.00
2018-05-03T07:36:36.788Z,5048.00
2018-05-03T07:37:36.910Z,5064.00
2018-05-03T07:38:37.014Z,4996.00
2018-05-03T07:39:37.138Z,5080.00
2018-05-03T07:40:37.268Z,5008.00
2018-05-03T07:41:37.352Z,5040.00
2018-05-03T07:42:40.440Z,5140.00
2018-05-03T07:43:37.590Z,4848.00
2018-05-03T07:44:37.687Z,4708.00
2018-05-03T07:45:37.851Z,4460.00
2018-05-03T07:46:37.841Z,4268.00
2018-05-03T07:47:37.929Z,4148.00
2018-05-03T07:48:38.095Z,4144.00
2018-05-03T07:49:38.117Z,4060.00
2018-05-03T07:50:38.327Z,4164.00
2018-05-03T07:51:38.318Z,4260.00
2018-05-03T07:52:38.411Z,4316.00
2018-05-03T07:53:38.570Z,4300.00
2018-05-03T07:54:38.672Z,4200.00
2018-05-03T07:55:38.786Z,4096.00
2018-05-03T07:56:38.965Z,4000.00
2018-05-03T07:57:39.069Z,3968.00
2018-05-03T07:58:39.186Z,3900.00
2018-05-03T07:59:39.277Z,3892.00
2018-05-03T08:00:39.375Z,3948.00
2018-05-03T08:01:39.478Z,4092.00
2018-05-03T08:02:39.588Z,4228.00
2018-05-03T08:03:39.707Z,4332.00
2018-05-03T08:04:39.821Z,4404.00
2018-05-03T08:05:39.920Z,4416.00
2018-05-03T08:06:40.030Z,4444.00
2018-05-03T08:07:40.128Z,4484.00
2018-05-03T08:08:40.216Z,4520.00
2018-05-03T08:09:40.343Z,4544.00
2018-05-03T08:10:40.528Z,4504.00
2018-05-03T08:11:40.533Z,4508.00
2018-05-03T08:12:40.684Z,4512.00
2018-05-03T08:13:40.743Z,4548.00
2018-05-03T08:14:40.848Z,4568.00
2018-05-03T08:15:41.043Z,4620.00
2018-05-03T08:16:41.049Z,4732.00
2018-05-03T08:17:41.161Z,4920.00
2018-05-03T08:18:41.267Z,5056.00
2018-05-03T08:19:41.471Z,5160.00
2018-05-03T08:20:41.443Z,5268.00
2018-05-03T08:21:41.558Z,5360.00
2018-05-03T08:22:41.772Z,5560.00
2018-05-03T08:23:41.748Z,5824.00
2018-05-03T08:24:41.902Z,5952.00
2018-05-03T08:25:41.987Z,6284.00
2018-05-03T08:26:42.082Z,6540.00
2018-05-03T08:27:42.175Z,6728.00
2018-05-03T08:28:42.274Z,7220.00
2018-05-03T08:29:42.369Z,7172.00
2018-05-03T08:30:42.481Z,7124.00
2018-05-03T08:31:42.618Z,7180.00
2018-05-03T08:32:42.663Z,7128.00
2018-05-03T08:33:42.857Z,7248.00
2018-05-03T08:34:42.957Z,7168.00
2018-05-03T08:35:43.060Z,7376.00
2018-05-03T08:36:43.160Z,7212.00
2018-05-03T08:37:43.279Z,7228.00
2018-05-03T08:38:43.377Z,7296.00
2018-05-03T08:39:43.466Z,7460.00
2018-05-03T08:40:43.605Z,7496.00
2018-05-03T08:41:43.747Z,7568.00
2018-05-03T08:42:43.743Z,7552.00
2018-05-03T08:43:43.845Z,7640.00
2018-05-03T08:44:43.943Z,7788.00
2018-05-03T08:45:44.232Z,8628.00
2018-05-03T08:46:44.135Z,8912.00
2018-05-03T08:47:44.222Z,8176.00
2018-05-03T08:48:44.316Z,8524.00
2018-05-03T08:49:44.400Z,8668.00
2018-05-03T08:50:44.550Z,9128.00
2018-05-03T08:51:44.600Z,9300.00
2018-05-03T08:52:44.702Z,9912.00
2018-05-03T08:53:44.817Z,10000.00
2018-05-03T08:54:44.913Z,10156.00
2018-05-03T08:55:45.023Z,11104.00
2018-05-03T08:56:45.115Z,11700.00
2018-05-03T08:57:45.212Z,11644.00
2018-05-03T08:58:45.325Z,10816.00
2018-05-03T08:59:45.439Z,11788.00
2018-05-03T09:00:45.533Z,10852.00
2018-05-03T09:01:45.709Z,10500.00
2018-05-03T09:02:45.807Z,9604.00
2018-05-03T09:03:45.862Z,9392.00
2018-05-03T09:04:45.941Z,9280.00
2018-05-03T09:05:46.048Z,9280.00
2018-05-03T09:06:46.198Z,9240.00
2018-05-03T09:07:46.330Z,9164.00
2018-05-03T09:08:46.428Z,9356.00
2018-05-03T09:09:46.497Z,9640.00
2018-05-03T09:10:46.628Z,9732.00
2018-05-03T09:11:46.736Z,8860.00
2018-05-03T09:12:46.865Z,8680.00
2018-05-03T09:13:47.078Z,8392.00
2018-05-03T09:14:47.026Z,8300.00
2018-05-03T09:15:47.123Z,8300.00
2018-05-03T09:16:47.229Z,8320.00
2018-05-03T09:17:47.320Z,8152.00
2018-05-03T09:18:47.425Z,7988.00
2018-05-03T09:19:47.531Z,7800.00
2018-05-03T09:20:47.677Z,7972.00
2018-05-03T09:21:47.828Z,8460.00
2018-05-03T09:22:47.852Z,8656.00
2018-05-03T09:23:47.873Z,8432.00
2018-05-03T09:24:48.051Z,8664.00
2018-05-03T09:25:48.092Z,9232.00
2018-05-03T09:26:48.099Z,8428.00
2018-05-03T09:27:48.203Z,8400.00
2018-05-03T09:28:48.294Z,8764.00
2018-05-03T09:29:48.383Z,8956.00
2018-05-03T09:30:48.500Z,8820.00
2018-05-03T09:31:48.603Z,8352.00
2018-05-03T09:32:48.693Z,8568.00
2018-05-03T09:33:48.809Z,8272.00
2018-05-03T09:34:48.901Z,7820.00
2018-05-03T09:35:48.972Z,7416.00
2018-05-03T09:36:49.081Z,7156.00
2018-05-03T09:37:49.198Z,7076.00
2018-05-03T09:38:49.283Z,6980.00
2018-05-03T09:39:49.439Z,7028.00
2018-05-03T09:40:49.490Z,7100.00
2018-05-03T09:41:49.576Z,7128.00
2018-05-03T09:42:49.662Z,7296.00
2018-05-03T09:43:49.781Z,7520.00
2018-05-03T09:44:49.882Z,7756.00
2018-05-03T09:45:49.959Z,7972.00
2018-05-03T09:46:50.067Z,8264.00
2018-05-03T09:47:50.199Z,8480.00
2018-05-03T09:48:50.208Z,8856.00
2018-05-03T09:49:50.341Z,9200.00
2018-05-03T09:50:50.425Z,9432.00
2018-05-03T09:51:50.495Z,9200.00
2018-05-03T09:52:50.610Z,9360.00
2018-05-03T09:53:50.729Z,9528.00
2018-05-03T09:54:50.834Z,9736.00
2018-05-03T09:55:50.960Z,9944.00
2018-05-03T09:56:51.071Z,9892.00
2018-05-03T09:57:51.164Z,9832.00
2018-05-03T09:58:51.258Z,9672.00
2018-05-03T09:59:51.385Z,9520.00
2018-05-03T10:00:51.488Z,9440.00
2018-05-03T10:01:51.599Z,9192.00
2018-05-03T10:02:51.798Z,8956.00
2018-05-03T10:03:51.752Z,8708.00
2018-05-03T10:04:51.933Z,8336.00
2018-05-03T10:05:51.969Z,7992.00
2018-05-03T10:06:52.072Z,7820.00
2018-05-03T10:07:52.190Z,7328.00
2018-05-03T10:08:52.273Z,7100.00
2018-05-03T10:09:52.373Z,6784.00
2018-05-03T10:10:52.477Z,6504.00
2018-05-03T10:11:52.578Z,6156.00
2018-05-03T10:12:52.678Z,5896.00
2018-05-03T10:13:52.780Z,5876.00
2018-05-03T10:14:52.885Z,5736.00
2018-05-03T10:15:52.983Z,5660.00
2018-05-03T10:16:53.086Z,5704.00
2018-05-03T10:17:53.184Z,5876.00
2018-05-03T10:18:53.288Z,5952.00
2018-05-03T10:19:53.387Z,5924.00
2018-05-03T10:20:53.492Z,5768.00
2018-05-03T10:21:53.594Z,5788.00
2018-05-03T10:22:53.699Z,5648.00
2018-05-03T10:23:53.797Z,5396.00
2018-05-03T10:24:53.900Z,5072.00
2018-05-03T10:25:54.002Z,4848.00
2018-05-03T10:26:54.101Z,4716.00
2018-05-03T10:27:54.202Z,4744.00
2018-05-03T10:28:54.306Z,4848.00
2018-05-03T10:29:54.446Z,4820.00
2018-05-03T10:30:54.507Z,4920.00
2018-05-03T10:31:54.609Z,5096.00
2018-05-03T10:32:54.707Z,5080.00
2018-05-03T10:33:54.806Z,5464.00
2018-05-03T10:34:54.913Z,5520.00
2018-05-03T10:35:55.083Z,5580.00
2018-05-03T10:36:55.112Z,5560.00
2018-05-03T10:37:55.216Z,5756.00
2018-05-03T10:38:55.316Z,5952.00
2018-05-03T10:39:55.418Z,6108.00
2018-05-03T10:40:55.516Z,6128.00
2018-05-03T10:41:55.693Z,6532.00
2018-05-03T10:42:55.717Z,6524.00
2018-05-03T10:43:55.818Z,6004.00
2018-05-03T10:44:55.923Z,6040.00
2018-05-03T10:45:56.024Z,5248.00
2018-05-03T10:46:56.124Z,5688.00
2018-05-03T10:47:56.226Z,6332.00
2018-05-03T10:48:56.319Z,5068.00
2018-05-03T10:49:56.420Z,6248.00
2018-05-03T10:50:56.520Z,7184.00
2018-05-03T10:51:56.611Z,6224.00
2018-05-03T10:52:56.725Z,6612.00
2018-05-03T10:53:56.825Z,6944.00
2018-05-03T10:54:56.933Z,7704.00
2018-05-03T10:55:57.034Z,6784.00
2018-05-03T10:56:57.134Z,8388.00
2018-05-03T10:57:57.237Z,8384.00
2018-05-03T10:58:57.322Z,8780.00
2018-05-03T10:59:57.441Z,8096.00
2018-05-03T11:00:57.541Z,8236.00
2018-05-03T11:01:57.643Z,7968.00
2018-05-03T11:02:57.744Z,7648.00
2018-05-03T11:03:57.848Z,5776.00
2018-05-03T11:04:57.945Z,5072.00
2018-05-03T11:05:58.047Z,5100.00
2018-05-03T11:06:58.147Z,5116.00
2018-05-03T11:07:58.250Z,5796.00
2018-05-03T11:08:58.349Z,5660.00
2018-05-03T11:09:58.451Z,6184.00
2018-05-03T11:10:58.556Z,6848.00
2018-05-03T11:11:58.655Z,9180.00
2018-05-03T11:12:58.762Z,8460.00
2018-05-03T11:13:58.860Z,7832.00
2018-05-03T11:14:58.965Z,7056.00
2018-05-03T11:15:59.067Z,8856.00
2018-05-03T11:16:59.175Z,8780.00
2018-05-03T11:17:59.275Z,6272.00
2018-05-03T11:18:59.375Z,6808.00
2018-05-03T11:19:59.469Z,8860.00
2018-05-03T11:20:59.651Z,5992.00
2018-05-03T11:21:59.709Z,6008.00
2018-05-03T11:22:59.848Z,6276.00
2018-05-03T11:23:59.938Z,7056.00
2018-05-03T11:25:00.061Z,6772.00
2018-05-03T11:26:00.177Z,6980.00
2018-05-03T11:27:00.331Z,7240.00
2018-05-03T11:28:00.310Z,8768.00
2018-05-03T11:29:00.421Z,9504.00
2018-05-03T11:30:00.659Z,9528.00
2018-05-03T11:31:00.708Z,9440.00
2018-05-03T11:32:00.724Z,9356.00
2018-05-03T11:33:00.820Z,10108.00
2018-05-03T11:34:00.918Z,7312.00
2018-05-03T11:35:01.185Z,6400.00
2018-05-03T11:36:01.078Z,6864.00
2018-05-03T11:37:01.202Z,6528.00
2018-05-03T11:38:01.274Z,6612.00
2018-05-03T11:39:01.363Z,6688.00
2018-05-03T11:40:01.495Z,6612.00
2018-05-03T11:41:01.630Z,6480.00
2018-05-03T11:42:01.720Z,6768.00
2018-05-03T11:43:01.873Z,7144.00
2018-05-03T11:44:01.972Z,7296.00
2018-05-03T11:45:02.108Z,7212.00
2018-05-03T11:46:02.231Z,7184.00
2018-05-03T11:47:02.313Z,7208.00
2018-05-03T11:48:02.438Z,7256.00
2018-05-03T11:49:02.550Z,7360.00
2018-05-03T11:50:02.648Z,8592.00
2018-05-03T11:51:02.733Z,8816.00
2018-05-03T11:52:02.858Z,6816.00
2018-05-03T11:53:02.955Z,6244.00
2018-05-03T11:54:03.044Z,5372.00
2018-05-03T11:55:03.150Z,4944.00
2018-05-03T11:56:03.241Z,4780.00
2018-05-03T11:57:03.355Z,4908.00
2018-05-03T11:58:03.446Z,4900.00
2018-05-03T11:59:03.559Z,4972.00
2018-05-03T12:00:03.650Z,5164.00
2018-05-03T12:01:03.741Z,5456.00
2018-05-03T12:02:03.852Z,5892.00
2018-05-03T12:03:03.938Z,8032.00
2018-05-03T12:04:04.031Z,6844.00
2018-05-03T12:05:04.155Z,8300.00
2018-05-03T12:06:04.297Z,10156.00
2018-05-03T12:07:04.370Z,10244.00
2018-05-03T12:08:04.487Z,10612.00
2018-05-03T12:09:04.627Z,10668.00
2018-05-03T12:10:04.728Z,10672.00
2018-05-03T12:11:04.902Z,10416.00
2018-05-03T12:12:04.868Z,10344.00
2018-05-03T12:13:04.966Z,10504.00
2018-05-03T12:14:05.060Z,10412.00
2018-05-03T12:15:05.148Z,10168.00
2018-05-03T12:16:05.268Z,9836.00
2018-05-03T12:17:05.368Z,6932.00
2018-05-03T12:18:05.463Z,6516.00
2018-05-03T12:19:05.561Z,6156.00
2018-05-03T12:20:05.671Z,5724.00
2018-05-03T12:21:05.770Z,5560.00
2018-05-03T12:22:05.891Z,5152.00
2018-05-03T12:23:05.962Z,4740.00
2018-05-03T12:24:06.061Z,4700.00
2018-05-03T12:25:06.176Z,4816.00
2018-05-03T12:26:06.296Z,4968.00
2018-05-03T12:27:06.397Z,5200.00
2018-05-03T12:28:06.500Z,5436.00
2018-05-03T12:29:06.615Z,5664.00
2018-05-03T12:30:06.715Z,5676.00